createdAt,value
2023-02-15T00:01:28.203Z,28.10
2023-02-15T00:04:47.111Z,26.97
2023-02-15T00:07:50.584Z,28.27
2023-02-15T00:10:55.043Z,26.77
2023-02-15T00:13:59.605Z,27.77
2023-02-15T00:17:02.750Z,28.30
2023-02-15T00:20:07.725Z,27.20
2023-02-15T00:23:11.496Z,31.73
2023-02-15T00:26:15.907Z,29.53
2023-02-15T00:29:22.068Z,28.97
2023-02-15T00:32:25.732Z,29.53
2023-02-15T00:35:28.869Z,29.03
2023-02-15T00:38:33.079Z,28.17
2023-02-15T00:41:38.008Z,29.90
2023-02-15T00:44:41.158Z,30.03
2023-02-15T00:47:44.286Z,30.50
2023-02-15T00:50:48.444Z,28.60
2023-02-15T00:53:52.225Z,28.50
2023-02-15T00:56:56.621Z,28.73
2023-02-15T00:59:59.914Z,30.40
2023-02-15T01:03:03.050Z,28.27
2023-02-15T01:06:06.572Z,30.83
2023-02-15T01:09:09.742Z,28.23
2023-02-15T01:12:15.057Z,28.37
2023-02-15T01:15:18.267Z,29.20
2023-02-15T01:18:21.824Z,30.70
2023-02-15T01:21:27.648Z,27.60
2023-02-15T01:24:30.618Z,29.30
2023-02-15T01:27:35.132Z,30.67
2023-02-15T01:30:38.676Z,28.50
2023-02-15T01:33:42.581Z,32.00
2023-02-15T01:36:46.300Z,29.20
2023-02-15T01:39:51.673Z,28.60
2023-02-15T01:42:59.900Z,29.63
2023-02-15T01:46:03.436Z,28.27
2023-02-15T01:49:14.350Z,28.00
2023-02-15T01:52:20.693Z,29.63
2023-02-15T01:55:26.228Z,29.57
2023-02-15T01:58:31.896Z,30.43
2023-02-15T02:01:36.117Z,30.00
2023-02-15T02:04:46.095Z,32.37
2023-02-15T02:07:53.335Z,30.73
2023-02-15T02:10:56.594Z,32.57
2023-02-15T02:14:01.250Z,32.63
2023-02-15T02:17:14.942Z,32.67
2023-02-15T02:20:53.396Z,34.60
2023-02-15T02:24:31.250Z,33.67
2023-02-15T02:27:41.024Z,33.53
2023-02-15T02:31:19.523Z,34.60
2023-02-15T02:34:31.581Z,34.77
2023-02-15T02:37:48.080Z,33.57
2023-02-15T02:41:03.245Z,35.00
2023-02-15T02:44:15.226Z,32.17
2023-02-15T02:47:25.410Z,34.23
2023-02-15T02:50:32.246Z,36.07
2023-02-15T02:53:36.210Z,33.43
2023-02-15T02:56:43.846Z,35.37
2023-02-15T02:59:49.673Z,41.07
2023-02-15T03:02:59.827Z,38.63
2023-02-15T03:06:08.965Z,36.23
2023-02-15T03:09:16.439Z,36.20
2023-02-15T03:12:23.669Z,38.70
2023-02-15T03:15:49.539Z,37.83
2023-02-15T03:18:59.119Z,37.80
2023-02-15T03:22:11.054Z,38.80
2023-02-15T03:25:19.007Z,37.40
2023-02-15T03:28:27.716Z,37.80
2023-02-15T03:31:39.834Z,40.47
2023-02-15T03:34:43.352Z,38.27
2023-02-15T03:37:53.037Z,39.93
2023-02-15T03:41:12.854Z,38.70
2023-02-15T03:44:23.707Z,37.87
2023-02-15T03:47:32.260Z,41.13
2023-02-15T03:51:04.216Z,39.93
2023-02-15T03:54:12.070Z,37.87
2023-02-15T03:57:40.302Z,39.17
2023-02-15T04:01:08.995Z,38.90
2023-02-15T04:04:18.469Z,37.33
2023-02-15T04:07:25.574Z,39.70
2023-02-15T04:10:47.607Z,39.07
2023-02-15T04:13:57.214Z,38.17
2023-02-15T04:16:59.360Z,38.80
2023-02-15T04:20:19.799Z,37.33
2023-02-15T04:23:41.608Z,35.40
2023-02-15T04:26:50.778Z,37.83
2023-02-15T04:29:56.265Z,39.73
2023-02-15T04:32:59.457Z,38.07
2023-02-15T04:36:02.903Z,39.47
2023-02-15T04:39:07.233Z,39.23
2023-02-15T04:42:11.672Z,38.17
2023-02-15T04:45:14.734Z,38.13
2023-02-15T04:48:18.122Z,38.63
2023-02-15T04:51:21.273Z,37.47
2023-02-15T04:54:24.516Z,37.77
2023-02-15T04:57:28.876Z,36.40
2023-02-15T05:00:35.518Z,37.27
2023-02-15T05:03:38.924Z,39.20
2023-02-15T05:06:42.306Z,37.40
2023-02-15T05:09:45.704Z,38.40
2023-02-15T05:12:50.191Z,37.97
2023-02-15T05:15:54.844Z,39.73
2023-02-15T05:18:58.155Z,37.50
2023-02-15T05:22:01.658Z,38.97
2023-02-15T05:25:22.729Z,39.87
2023-02-15T05:28:30.083Z,39.40
2023-02-15T05:31:34.339Z,38.67
2023-02-15T05:34:37.858Z,38.43
2023-02-15T05:37:40.889Z,38.87
2023-02-15T05:40:43.926Z,38.73
2023-02-15T05:43:52.365Z,41.13
2023-02-15T05:46:55.389Z,40.97
2023-02-15T05:49:58.462Z,42.10
2023-02-15T05:53:01.531Z,39.57
2023-02-15T05:56:06.291Z,41.10
2023-02-15T05:59:10.904Z,41.80
2023-02-15T06:02:14.168Z,42.27
2023-02-15T06:05:17.446Z,43.20
2023-02-15T06:08:21.565Z,42.33
2023-02-15T06:11:24.718Z,42.37
2023-02-15T06:14:29.317Z,43.03
2023-02-15T06:17:32.588Z,42.93
2023-02-15T06:20:35.668Z,42.50
2023-02-15T06:23:39.058Z,41.47
2023-02-15T06:26:42.222Z,43.67
2023-02-15T06:29:46.627Z,45.93
2023-02-15T06:32:50.213Z,41.23
2023-02-15T06:35:54.106Z,41.27
2023-02-15T06:38:58.094Z,42.87
2023-02-15T06:42:01.498Z,45.17
2023-02-15T06:45:08.609Z,42.87
2023-02-15T06:48:12.139Z,47.57
2023-02-15T06:51:15.722Z,39.43
2023-02-15T06:54:18.976Z,41.00
2023-02-15T06:57:22.061Z,42.17
2023-02-15T07:00:26.684Z,40.87
2023-02-15T07:03:29.772Z,42.83
2023-02-15T07:06:34.239Z,40.37
2023-02-15T07:09:37.496Z,43.73
2023-02-15T07:12:45.086Z,43.60
2023-02-15T07:15:50.580Z,46.07
2023-02-15T07:18:54.051Z,44.37
2023-02-15T07:21:57.158Z,40.33
2023-02-15T07:25:00.178Z,44.37
2023-02-15T07:28:06.052Z,44.77
2023-02-15T07:31:10.987Z,42.37
2023-02-15T07:34:14.394Z,41.57
2023-02-15T07:37:17.508Z,41.97
2023-02-15T07:40:23.366Z,42.70
2023-02-15T07:43:26.645Z,45.90
2023-02-15T07:46:31.442Z,39.33
2023-02-15T07:49:34.633Z,44.83
2023-02-15T07:52:37.759Z,44.03
2023-02-15T07:55:40.916Z,44.30
2023-02-15T07:58:53.539Z,41.80
2023-02-15T08:01:58.570Z,41.30
2023-02-15T08:05:03.861Z,42.27
2023-02-15T08:08:07.554Z,43.73
2023-02-15T08:11:33.870Z,45.57
2023-02-15T08:14:37.298Z,46.60
2023-02-15T08:17:42.320Z,43.83
2023-02-15T08:20:51.316Z,42.63
2023-02-15T08:23:54.727Z,40.77
2023-02-15T08:27:00.291Z,40.23
2023-02-15T08:30:03.522Z,43.17
2023-02-15T08:33:08.067Z,41.80
2023-02-15T08:36:14.011Z,43.33
2023-02-15T08:39:19.886Z,42.37
2023-02-15T08:42:22.993Z,45.33
2023-02-15T08:45:26.521Z,41.60
2023-02-15T08:48:30.999Z,45.80
2023-02-15T08:51:38.368Z,41.73
2023-02-15T08:54:41.457Z,42.13
2023-02-15T08:57:46.483Z,42.03
2023-02-15T09:00:49.599Z,43.73
2023-02-15T09:03:58.412Z,45.37
2023-02-15T09:07:01.598Z,42.60
2023-02-15T09:10:04.911Z,42.60
2023-02-15T09:13:07.991Z,43.00
2023-02-15T09:16:11.929Z,39.00
2023-02-15T09:19:18.299Z,44.77
2023-02-15T09:22:21.356Z,39.23
2023-02-15T09:25:24.578Z,39.63
2023-02-15T09:28:32.795Z,41.70
2023-02-15T09:31:42.262Z,40.83
2023-02-15T09:34:46.639Z,40.43
2023-02-15T09:37:49.817Z,43.87
2023-02-15T09:41:09.049Z,40.10
2023-02-15T09:44:22.822Z,40.37
2023-02-15T09:47:47.961Z,37.17
2023-02-15T09:51:14.843Z,37.53
2023-02-15T09:54:56.384Z,38.47
2023-02-15T09:58:10.012Z,39.97
2023-02-15T10:01:21.910Z,37.23
2023-02-15T10:04:46.177Z,38.97
2023-02-15T10:08:38.018Z,38.20
2023-02-15T10:12:00.341Z,37.50
2023-02-15T10:15:26.401Z,37.50
2023-02-15T10:18:53.293Z,36.27
2023-02-15T10:22:09.900Z,39.67
2023-02-15T10:25:31.674Z,38.47
2023-02-15T10:28:46.904Z,36.57
2023-02-15T10:31:54.160Z,36.80
2023-02-15T10:35:04.291Z,37.20
2023-02-15T10:38:21.366Z,38.40
2023-02-15T10:41:38.163Z,37.30
2023-02-15T10:44:57.680Z,36.37
2023-02-15T10:48:27.145Z,36.07
2023-02-15T10:51:40.612Z,38.27
2023-02-15T10:54:53.310Z,33.67
2023-02-15T10:58:10.691Z,36.00
2023-02-15T11:01:22.352Z,32.70
2023-02-15T11:04:46.741Z,32.57
2023-02-15T11:07:53.068Z,34.30
2023-02-15T11:11:01.998Z,31.27
2023-02-15T11:14:17.040Z,33.60
2023-02-15T11:17:29.067Z,31.97
2023-02-15T11:20:37.949Z,32.10
2023-02-15T11:23:46.485Z,30.77
2023-02-15T11:26:57.789Z,32.07
2023-02-15T11:30:10.377Z,30.90
2023-02-15T11:33:23.329Z,28.70
2023-02-15T11:36:30.956Z,31.33
2023-02-15T11:39:36.954Z,28.97
2023-02-15T11:42:43.839Z,31.40
2023-02-15T11:45:48.765Z,29.30
2023-02-15T11:48:52.113Z,27.73
2023-02-15T11:51:57.388Z,26.60
2023-02-15T11:55:00.890Z,28.33
2023-02-15T11:58:43.603Z,27.60
2023-02-15T12:01:53.859Z,26.63
2023-02-15T12:05:00.375Z,26.87
2023-02-15T12:08:11.511Z,26.27
2023-02-15T12:11:21.762Z,23.67
2023-02-15T12:14:28.241Z,23.43
2023-02-15T12:17:37.697Z,23.03
2023-02-15T12:20:48.987Z,23.53
2023-02-15T12:23:55.823Z,23.53
2023-02-15T12:27:06.384Z,23.87
2023-02-15T12:30:22.405Z,22.87
2023-02-15T12:33:32.566Z,22.23
2023-02-15T12:36:47.933Z,23.20
2023-02-15T12:39:58.466Z,22.90
2023-02-15T12:43:09.201Z,23.07
2023-02-15T12:46:25.320Z,23.70
2023-02-15T12:49:30.842Z,22.77
2023-02-15T12:52:33.933Z,21.10
2023-02-15T12:55:37.598Z,21.37
2023-02-15T12:58:42.299Z,22.67
2023-02-15T13:01:46.950Z,23.10
2023-02-15T13:04:52.816Z,23.67
2023-02-15T13:07:59.220Z,22.03
2023-02-15T13:11:06.615Z,21.57
2023-02-15T13:14:21.806Z,22.03
2023-02-15T13:17:30.498Z,22.50
2023-02-15T13:20:37.491Z,24.07
2023-02-15T13:23:44.324Z,22.83
2023-02-15T13:26:49.001Z,22.60
2023-02-15T13:29:59.158Z,22.07
2023-02-15T13:33:07.317Z,22.77
2023-02-15T13:36:21.291Z,22.20
2023-02-15T13:39:32.449Z,21.63
2023-02-15T13:42:42.240Z,20.57
2023-02-15T13:45:59.350Z,20.40
2023-02-15T13:49:19.749Z,19.57
2023-02-15T13:52:26.228Z,20.13
2023-02-15T13:55:39.137Z,20.70
2023-02-15T13:59:10.661Z,20.53
2023-02-15T14:02:51.715Z,18.20
2023-02-15T14:06:13.880Z,18.70
2023-02-15T14:09:34.753Z,21.57
2023-02-15T14:12:55.121Z,20.23
2023-02-15T14:16:05.405Z,20.13
2023-02-15T14:19:19.106Z,20.43
2023-02-15T14:22:32.886Z,21.60
2023-02-15T14:25:46.836Z,22.17
2023-02-15T14:29:00.990Z,21.53
2023-02-15T14:32:32.286Z,20.27
2023-02-15T14:35:38.113Z,20.07
2023-02-15T14:38:56.818Z,20.97
2023-02-15T14:42:09.445Z,20.93
2023-02-15T14:45:26.660Z,21.57
2023-02-15T14:48:38.270Z,17.70
2023-02-15T14:52:02.242Z,20.17
2023-02-15T14:55:11.110Z,20.33
2023-02-15T14:58:16.100Z,18.60
2023-02-15T15:01:28.765Z,20.17
2023-02-15T15:04:34.248Z,19.73
2023-02-15T15:07:46.986Z,19.37
2023-02-15T15:10:50.063Z,19.57
2023-02-15T15:13:59.490Z,19.93
2023-02-15T15:17:04.108Z,21.90
2023-02-15T15:20:15.022Z,19.73
2023-02-15T15:23:43.398Z,20.50
2023-02-15T15:26:51.738Z,19.73
2023-02-15T15:29:56.152Z,17.87
2023-02-15T15:33:15.186Z,18.57
2023-02-15T15:36:55.463Z,18.50
2023-02-15T15:40:54.941Z,17.53
2023-02-15T15:44:46.034Z,18.00
2023-02-15T15:48:16.764Z,17.53
2023-02-15T15:51:22.518Z,17.50
2023-02-15T15:54:28.365Z,19.33
2023-02-15T15:57:37.039Z,18.07
2023-02-15T16:00:45.498Z,19.67
2023-02-15T16:03:56.149Z,18.30
2023-02-15T16:07:05.911Z,18.77
2023-02-15T16:10:24.362Z,18.93
2023-02-15T16:13:28.050Z,19.20
2023-02-15T16:16:32.012Z,19.50
2023-02-15T16:19:41.125Z,20.33
2023-02-15T16:22:44.326Z,19.60
2023-02-15T16:25:57.435Z,21.17
2023-02-15T16:29:02.528Z,21.07
2023-02-15T16:32:18.227Z,19.57
2023-02-15T16:35:24.872Z,19.80
2023-02-15T16:39:08.786Z,20.93
2023-02-15T16:42:14.532Z,19.67
2023-02-15T16:45:21.917Z,18.20
2023-02-15T16:48:28.706Z,18.03
2023-02-15T16:51:36.282Z,19.60
2023-02-15T16:54:43.144Z,20.63
2023-02-15T16:57:46.434Z,21.43
2023-02-15T17:00:49.709Z,20.93
2023-02-15T17:04:13.321Z,20.90
2023-02-15T17:07:20.601Z,19.73
2023-02-15T17:10:34.644Z,20.87
2023-02-15T17:13:37.766Z,20.77
2023-02-15T17:16:45.561Z,21.97
2023-02-15T17:19:52.824Z,37.03
2023-02-15T17:22:57.868Z,30.00
2023-02-15T17:26:04.578Z,23.77
2023-02-15T17:29:18.675Z,23.70
2023-02-15T17:32:26.188Z,23.77
2023-02-15T17:35:31.170Z,23.73
2023-02-15T17:38:39.527Z,22.57
2023-02-15T17:41:43.791Z,23.50
2023-02-15T17:44:46.835Z,20.80
2023-02-15T17:47:51.960Z,23.00
2023-02-15T17:50:58.146Z,22.00
2023-02-15T17:54:20.597Z,23.17
2023-02-15T17:57:23.680Z,23.50
2023-02-15T18:00:44.342Z,22.60
2023-02-15T18:04:08.942Z,21.23
2023-02-15T18:07:32.620Z,22.07
2023-02-15T18:10:59.467Z,21.70
2023-02-15T18:14:02.631Z,21.03
2023-02-15T18:17:06.732Z,22.73
2023-02-15T18:20:20.517Z,20.57
2023-02-15T18:23:23.544Z,22.30
2023-02-15T18:26:29.297Z,21.40
2023-02-15T18:29:32.633Z,25.27
2023-02-15T18:32:41.391Z,25.50
2023-02-15T18:35:50.044Z,25.43
2023-02-15T18:38:54.304Z,22.63
2023-02-15T18:41:58.874Z,23.40
2023-02-15T18:45:17.362Z,23.73
2023-02-15T18:48:20.533Z,26.17
2023-02-15T18:51:25.061Z,26.93
2023-02-15T18:54:28.846Z,27.17
2023-02-15T18:57:33.998Z,26.87
2023-02-15T19:00:37.106Z,28.30
2023-02-15T19:03:40.153Z,27.20
2023-02-15T19:06:48.044Z,25.17
2023-02-15T19:09:54.641Z,27.27
2023-02-15T19:12:59.685Z,28.67
2023-02-15T19:16:04.946Z,26.93
2023-02-15T19:19:08.452Z,28.03
2023-02-15T19:22:15.728Z,28.17
2023-02-15T19:25:23.810Z,28.87
2023-02-15T19:28:33.692Z,27.73
2023-02-15T19:31:37.135Z,27.13
2023-02-15T19:34:40.641Z,27.00
2023-02-15T19:37:47.307Z,27.47
2023-02-15T19:40:51.253Z,28.33
2023-02-15T19:43:57.059Z,27.97
2023-02-15T19:47:00.971Z,27.77
2023-02-15T19:50:04.892Z,28.00
2023-02-15T19:53:19.603Z,27.57
2023-02-15T19:56:24.605Z,28.27
2023-02-15T19:59:31.437Z,27.93
2023-02-15T20:02:34.566Z,29.83
2023-02-15T20:05:38.706Z,27.73
2023-02-15T20:08:43.064Z,28.23
2023-02-15T20:11:46.627Z,26.77
2023-02-15T20:14:51.253Z,28.77
2023-02-15T20:17:55.608Z,30.00
2023-02-15T20:21:00.435Z,29.20
2023-02-15T20:24:05.393Z,30.10
2023-02-15T20:27:16.442Z,28.20
2023-02-15T20:30:24.486Z,29.40
2023-02-15T20:33:27.923Z,28.43
2023-02-15T20:36:30.996Z,28.57
2023-02-15T20:39:35.039Z,28.60
2023-02-15T20:42:38.179Z,28.33
2023-02-15T20:45:42.674Z,29.67
2023-02-15T20:48:45.839Z,27.67
2023-02-15T20:51:49.506Z,28.43
2023-02-15T20:54:52.717Z,28.77
2023-02-15T20:57:56.839Z,27.97
2023-02-15T21:01:01.515Z,29.33
2023-02-15T21:04:10.325Z,29.63
2023-02-15T21:07:16.937Z,30.30
2023-02-15T21:10:22.921Z,32.63
2023-02-15T21:13:29.101Z,31.33
2023-02-15T21:16:34.081Z,31.47
2023-02-15T21:19:40.799Z,30.67
2023-02-15T21:22:44.957Z,31.70
2023-02-15T21:25:48.395Z,31.30
2023-02-15T21:28:52.337Z,33.23
2023-02-15T21:31:58.321Z,31.77
2023-02-15T21:35:01.595Z,31.20
2023-02-15T21:38:05.836Z,30.37
2023-02-15T21:41:34.446Z,30.87
2023-02-15T21:44:56.835Z,33.73
2023-02-15T21:48:02.779Z,32.20
2023-02-15T21:51:20.223Z,32.07
2023-02-15T21:54:28.992Z,31.50
2023-02-15T21:57:32.403Z,31.93
2023-02-15T22:00:35.611Z,31.27
2023-02-15T22:03:40.488Z,31.57
2023-02-15T22:06:43.668Z,31.13
2023-02-15T22:09:46.837Z,30.60
2023-02-15T22:12:50.840Z,32.13
2023-02-15T22:15:54.183Z,33.23
2023-02-15T22:19:01.616Z,33.87
2023-02-15T22:22:04.788Z,33.10
2023-02-15T22:25:08.807Z,32.90
2023-02-15T22:28:17.055Z,36.30
2023-02-15T22:31:22.358Z,33.93
2023-02-15T22:34:31.992Z,33.13
2023-02-15T22:37:35.074Z,33.20
2023-02-15T22:40:38.304Z,33.77
2023-02-15T22:43:43.952Z,35.13
2023-02-15T22:46:47.099Z,32.03
2023-02-15T22:49:51.653Z,32.33
2023-02-15T22:52:55.177Z,32.67
2023-02-15T22:56:01.830Z,33.07
2023-02-15T22:59:08.908Z,34.50
2023-02-15T23:02:16.090Z,35.63
2023-02-15T23:05:24.035Z,34.97
2023-02-15T23:08:27.111Z,38.07
2023-02-15T23:11:30.418Z,34.53
2023-02-15T23:14:37.302Z,38.83
2023-02-15T23:17:40.459Z,36.10
2023-02-15T23:20:45.739Z,35.30
2023-02-15T23:23:51.601Z,36.23
2023-02-15T23:26:55.093Z,34.57
2023-02-15T23:29:58.227Z,36.80
2023-02-15T23:33:01.462Z,34.37
2023-02-15T23:36:07.108Z,33.53
2023-02-15T23:39:33.065Z,36.47
2023-02-15T23:42:36.753Z,36.60
2023-02-15T23:45:40.580Z,38.13
2023-02-15T23:48:44.092Z,36.50
2023-02-15T23:51:51.655Z,34.87
2023-02-15T23:54:54.967Z,35.30
2023-02-15T23:57:58.582Z,34.80
